Time;durP1;ratioP1;P1;durP2;ratioP2;P2;SDS_P1;SDS_P2;PMS_P1;PMS_P2;Temp;Humidity;BMP_temperature;BMP_pressure;BME280_temperature;BME280_humidity;BME280_pressure;Samples;Min_cycle;Max_cycle;Signal;HPM_P1;HPM_P2
2022/04/13 00:01:23;;;;;;;8.18;2.10;;;22.50;69.20;;;;;;4144328;28;20063;-60
2022/04/13 00:03:25;;;;;;;5.32;1.95;;;22.50;69.20;;;;;;4148803;28;20166;-62
2022/04/13 00:05:27;;;;;;;4.82;2.58;;;22.50;69.80;;;;;;4148514;28;20045;-61
2022/04/13 00:07:29;;;;;;;5.50;1.90;;;22.50;69.20;;;;;;4144872;28;20057;-60
2022/04/13 00:09:31;;;;;;;4.38;2.08;;;22.50;69.20;;;;;;4144660;28;20801;-61
2022/04/13 00:11:34;;;;;;;5.85;2.15;;;22.50;69.10;;;;;;4152930;28;20049;-61
2022/04/13 00:13:36;;;;;;;3.67;2.20;;;22.50;69.10;;;;;;4144202;28;21071;-60
2022/04/13 00:15:38;;;;;;;4.40;2.03;;;22.50;69.00;;;;;;4145395;28;20041;-61
2022/04/13 00:17:40;;;;;;;5.03;1.67;;;22.60;69.00;;;;;;4149532;28;20044;-61
2022/04/13 00:19:43;;;;;;;3.45;1.75;;;22.60;69.00;;;;;;4150169;28;20165;-61
2022/04/13 00:21:45;;;;;;;3.85;1.90;;;22.60;69.00;;;;;;4145678;28;20080;-62
2022/04/13 00:23:47;;;;;;;6.40;2.17;;;22.60;69.10;;;;;;4146531;28;20057;-61
2022/04/13 00:25:49;;;;;;;2.85;1.67;;;22.50;69.00;;;;;;4152345;28;20487;-61
2022/04/13 00:27:51;;;;;;;7.43;1.40;;;22.60;69.00;;;;;;4146513;28;22288;-61
2022/04/13 00:29:53;;;;;;;9.23;2.17;;;22.60;69.10;;;;;;4148649;28;20105;-61
2022/04/13 00:31:58;;;;;;;4.13;1.75;;;22.60;69.20;;;;;;4153032;28;20056;-60
2022/04/13 00:34:01;;;;;;;6.10;1.55;;;22.60;69.30;;;;;;4151139;28;20087;-60
2022/04/13 00:36:03;;;;;;;4.95;1.65;;;22.60;69.20;;;;;;4145690;28;20508;-60
2022/04/13 00:38:06;;;;;;;4.60;1.58;;;22.60;69.20;;;;;;4143080;28;20080;-60
2022/04/13 00:40:09;;;;;;;5.22;1.42;;;22.60;69.10;;;;;;4150442;28;20098;-60
2022/04/13 00:42:11;;;;;;;6.20;1.98;;;22.70;69.20;;;;;;4148538;28;20121;-60
2022/04/13 00:44:13;;;;;;;6.68;1.85;;;22.70;69.20;;;;;;4147286;28;20582;-59
2022/04/13 00:46:15;;;;;;;3.53;1.60;;;22.60;69.10;;;;;;4148528;28;20495;-61
2022/04/13 00:48:36;;;;;;;5.07;1.95;;;22.70;69.10;;;;;;4153185;28;20052;-60
2022/04/13 00:50:38;;;;;;;6.05;1.58;;;22.70;69.10;;;;;;4148391;28;20057;-60
2022/04/13 00:52:46;;;;;;;5.63;1.75;;;22.70;69.00;;;;;;4154056;28;20053;-61
2022/04/13 00:54:49;;;;;;;5.07;1.67;;;22.70;69.00;;;;;;4150985;28;20184;-59
2022/04/13 00:56:54;;;;;;;6.88;1.75;;;22.70;68.90;;;;;;4147658;28;20862;-62
2022/04/13 00:59:03;;;;;;;5.05;1.65;;;22.80;69.10;;;;;;4146964;28;20122;-60
2022/04/13 01:01:07;;;;;;;9.88;1.73;;;22.70;69.20;;;;;;4149439;28;20049;-64
2022/04/13 01:03:09;;;;;;;3.97;1.50;;;22.80;69.20;;;;;;4152970;28;20095;-60
2022/04/13 01:05:12;;;;;;;3.13;1.35;;;22.80;69.10;;;;;;4149468;28;20087;-57
2022/04/13 01:07:15;;;;;;;5.05;1.52;;;22.80;68.80;;;;;;4147324;28;20095;-58
2022/04/13 01:09:19;;;;;;;3.75;1.80;;;22.80;68.40;;;;;;4151235;28;20067;-58
2022/04/13 01:11:23;;;;;;;3.50;1.67;;;22.80;68.30;;;;;;4158855;28;20144;-59
2022/04/13 01:13:25;;;;;;;5.57;1.88;;;22.80;68.20;;;;;;4153496;28;21027;-59
2022/04/13 01:15:27;;;;;;;4.63;2.38;;;22.80;68.20;;;;;;4151315;28;20040;-59
2022/04/13 01:17:29;;;;;;;6.25;1.70;;;22.70;68.00;;;;;;4152983;28;20079;-59
2022/04/13 01:19:32;;;;;;;5.53;2.00;;;22.70;68.10;;;;;;4154618;28;20048;-59
2022/04/13 01:21:47;;;;;;;6.03;2.10;;;22.70;68.00;;;;;;4150204;28;20506;-58
2022/04/13 01:23:52;;;;;;;3.15;1.55;;;22.70;67.90;;;;;;4149695;28;21460;-59
2022/04/13 01:25:55;;;;;;;5.75;1.30;;;22.70;67.70;;;;;;4152208;28;20052;-59
2022/04/13 01:27:57;;;;;;;;;;;22.70;68.00;;;;;;4152965;28;20082;-58
2022/04/13 01:29:59;;;;;;;3.03;1.67;;;22.70;68.20;;;;;;4155850;28;20283;-57
2022/04/13 01:32:01;;;;;;;2.35;1.30;;;22.80;68.30;;;;;;4152216;28;20140;-58
2022/04/13 01:34:04;;;;;;;1.90;1.20;;;22.80;68.90;;;;;;4153213;28;20045;-59
2022/04/13 01:36:08;;;;;;;3.55;1.45;;;22.90;68.40;;;;;;4156028;28;20139;-57
2022/04/13 01:38:10;;;;;;;3.30;1.50;;;22.90;68.50;;;;;;4151550;28;20176;-58
2022/04/13 01:40:12;;;;;;;2.50;1.08;;;22.90;68.40;;;;;;4160615;28;20047;-58
2022/04/13 01:42:15;;;;;;;2.30;1.05;;;22.90;68.30;;;;;;4152572;28;21596;-59
2022/04/13 01:44:17;;;;;;;3.55;1.30;;;22.90;68.20;;;;;;4176667;28;20549;-59
2022/04/13 01:46:19;;;;;;;2.33;1.35;;;22.90;68.10;;;;;;4153425;28;20500;-59
2022/04/13 01:48:22;;;;;;;3.80;1.00;;;22.90;68.00;;;;;;4137834;28;20071;-58
2022/04/13 01:50:24;;;;;;;1.43;0.97;;;22.90;67.90;;;;;;4156280;28;20040;-58
2022/04/13 01:52:26;;;;;;;2.70;1.45;;;22.90;67.90;;;;;;4138829;28;20063;-59
2022/04/13 01:54:28;;;;;;;1.83;1.20;;;22.90;67.90;;;;;;4149905;28;20074;-59
2022/04/13 01:56:30;;;;;;;2.13;0.80;;;23.00;67.90;;;;;;4143380;28;20052;-60
2022/04/13 01:58:33;;;;;;;1.77;0.80;;;22.90;67.70;;;;;;4146925;28;20060;-60
2022/04/13 02:00:38;;;;;;;1.67;0.90;;;23.00;67.60;;;;;;4145487;28;21862;-61
2022/04/13 02:02:41;;;;;;;2.30;0.88;;;23.00;67.60;;;;;;4145295;28;20476;-61
2022/04/13 02:04:43;;;;;;;1.75;0.88;;;23.00;67.50;;;;;;4126515;28;20092;-61
2022/04/13 02:06:45;;;;;;;1.75;0.98;;;23.00;67.50;;;;;;4148948;28;20376;-60
2022/04/13 02:08:48;;;;;;;3.43;0.87;;;23.00;67.40;;;;;;4147333;28;21114;-59
2022/04/13 02:10:51;;;;;;;2.60;0.93;;;23.00;67.50;;;;;;4143470;28;20432;-61
2022/04/13 02:12:53;;;;;;;2.45;1.02;;;23.00;67.60;;;;;;4162952;28;20585;-62
2022/04/13 02:14:55;;;;;;;2.58;0.95;;;23.00;67.90;;;;;;4154167;28;20064;-62
2022/04/13 02:16:58;;;;;;;2.95;1.10;;;23.00;67.90;;;;;;4142172;28;20049;-60
2022/04/13 02:19:00;;;;;;;1.80;0.95;;;23.10;68.00;;;;;;4141551;28;20049;-61
2022/04/13 02:21:02;;;;;;;3.45;1.00;;;23.10;68.00;;;;;;4148789;28;20136;-61
2022/04/13 02:23:05;;;;;;;2.22;0.75;;;23.10;68.00;;;;;;4146575;28;22258;-61
2022/04/13 02:25:08;;;;;;;1.67;1.00;;;23.20;68.20;;;;;;4146826;28;20044;-57
2022/04/13 02:27:12;;;;;;;4.63;1.17;;;23.20;69.00;;;;;;4149512;28;20045;-56
2022/04/13 02:29:14;;;;;;;3.80;1.17;;;23.20;68.10;;;;;;4152967;28;20732;-59
2022/04/13 02:31:17;;;;;;;1.05;0.70;;;23.20;68.00;;;;;;4149177;28;20651;-58
2022/04/13 02:33:21;;;;;;;1.77;1.20;;;23.20;67.90;;;;;;4145407;28;20748;-57
2022/04/13 02:35:25;;;;;;;6.22;1.40;;;23.10;67.70;;;;;;4154930;28;20077;-63
2022/04/13 02:37:27;;;;;;;4.88;1.05;;;23.10;68.70;;;;;;4159908;28;20041;-61
2022/04/13 02:39:29;;;;;;;8.10;1.35;;;23.10;68.50;;;;;;4154449;28;20136;-61
2022/04/13 02:41:32;;;;;;;3.30;0.80;;;23.20;68.90;;;;;;4152661;28;20132;-62
2022/04/13 02:43:34;;;;;;;3.72;0.60;;;23.20;69.30;;;;;;4161337;28;20125;-61
2022/04/13 02:45:36;;;;;;;2.67;0.90;;;23.20;69.30;;;;;;4149445;28;20522;-61
2022/04/13 02:47:38;;;;;;;2.03;0.63;;;23.20;69.20;;;;;;4147548;28;20052;-61
2022/04/13 02:49:43;;;;;;;1.92;0.75;;;23.30;69.20;;;;;;4147681;28;20099;-60
2022/04/13 02:51:45;;;;;;;0.45;0.40;;;23.30;69.00;;;;;;4148948;28;20101;-61
2022/04/13 02:53:47;;;;;;;0.63;0.40;;;23.40;68.90;;;;;;4158682;28;20891;-61
2022/04/13 02:55:51;;;;;;;1.40;0.40;;;23.40;68.70;;;;;;4145549;28;20048;-62
2022/04/13 02:57:54;;;;;;;1.60;0.40;;;23.40;68.70;;;;;;4143987;28;20407;-62
2022/04/13 02:59:56;;;;;;;1.40;0.50;;;23.40;68.80;;;;;;4144136;28;20064;-62
2022/04/13 03:01:58;;;;;;;0.40;0.40;;;23.40;69.00;;;;;;4138642;28;20276;-63
2022/04/13 03:04:00;;;;;;;2.08;0.50;;;23.40;68.90;;;;;;4135172;28;20587;-60
2022/04/13 03:06:03;;;;;;;1.50;0.50;;;23.40;68.90;;;;;;4142698;28;20044;-58
2022/04/13 03:08:07;;;;;;;0.82;0.50;;;23.50;69.30;;;;;;4136050;28;21384;-59
2022/04/13 03:10:09;;;;;;;2.42;1.02;;;23.50;69.20;;;;;;4138308;28;20045;-58
2022/04/13 03:12:12;;;;;;;1.83;0.90;;;23.50;68.80;;;;;;4137129;28;20135;-62
2022/04/13 03:14:14;;;;;;;3.75;0.70;;;23.50;68.50;;;;;;4143232;28;20909;-62
2022/04/13 03:16:17;;;;;;;1.90;0.95;;;23.60;68.60;;;;;;4134793;28;20063;-60
2022/04/13 03:18:19;;;;;;;2.35;0.82;;;23.60;68.60;;;;;;4135690;28;21123;-61
2022/04/13 03:20:21;;;;;;;2.22;0.70;;;23.60;68.70;;;;;;4140347;28;20069;-61
2022/04/13 03:22:27;;;;;;;2.90;0.70;;;23.60;68.70;;;;;;4140337;28;20053;-58
2022/04/13 03:24:29;;;;;;;3.10;0.65;;;23.70;68.70;;;;;;4118536;28;21304;-55
2022/04/13 03:26:31;;;;;;;1.00;0.60;;;23.70;68.50;;;;;;4134627;28;20122;-57
2022/04/13 03:28:34;;;;;;;1.52;0.80;;;23.70;68.40;;;;;;4142982;28;20049;-52
2022/04/13 03:30:36;;;;;;;2.17;1.13;;;23.70;67.90;;;;;;4140170;28;20210;-53
2022/04/13 03:32:39;;;;;;;1.92;1.00;;;23.60;67.50;;;;;;4137361;28;20040;-54
2022/04/13 03:34:41;;;;;;;2.40;0.98;;;23.60;67.60;;;;;;4118760;28;20068;-52
2022/04/13 03:36:44;;;;;;;1.58;1.20;;;23.70;67.70;;;;;;4143945;28;20052;-55
2022/04/13 03:38:46;;;;;;;4.03;1.38;;;23.70;67.60;;;;;;4136431;28;20159;-55
2022/04/13 03:40:48;;;;;;;2.35;1.10;;;23.60;67.60;;;;;;4137451;28;20056;-60
2022/04/13 03:42:50;;;;;;;2.88;1.20;;;23.60;67.60;;;;;;4141494;28;20599;-57
2022/04/13 03:44:53;;;;;;;1.50;1.33;;;23.70;68.10;;;;;;4143902;28;20060;-56
2022/04/13 03:46:55;;;;;;;5.45;1.35;;;23.60;67.50;;;;;;4137386;28;20049;-57
2022/04/13 03:48:57;;;;;;;2.63;0.80;;;23.70;67.70;;;;;;4137810;28;20107;-56
2022/04/13 03:51:00;;;;;;;2.33;1.02;;;23.70;67.80;;;;;;4144844;28;20496;-54
2022/04/13 03:53:02;;;;;;;2.63;1.00;;;23.70;67.90;;;;;;4120726;28;20171;-58
2022/04/13 03:55:06;;;;;;;2.83;1.02;;;23.70;68.00;;;;;;4138563;28;20981;-54
2022/04/13 03:57:09;;;;;;;1.85;0.98;;;23.70;68.00;;;;;;4136089;28;20063;-58
2022/04/13 03:59:11;;;;;;;1.75;0.98;;;23.70;68.00;;;;;;4144367;28;20063;-56
2022/04/13 04:01:13;;;;;;;5.10;1.05;;;23.80;68.10;;;;;;4137467;28;21776;-60
2022/04/13 04:03:15;;;;;;;1.15;0.82;;;23.70;68.20;;;;;;4137070;28;20078;-58
2022/04/13 04:05:18;;;;;;;4.20;1.00;;;23.80;68.30;;;;;;4143273;28;20077;-59
2022/04/13 04:07:20;;;;;;;5.80;0.95;;;23.80;68.20;;;;;;4124029;28;21329;-58
2022/04/13 04:09:22;;;;;;;3.90;1.00;;;23.80;68.20;;;;;;4137181;28;20048;-59
2022/04/13 04:11:24;;;;;;;2.83;0.88;;;23.80;68.10;;;;;;4138543;28;20053;-59
2022/04/13 04:13:27;;;;;;;1.88;0.80;;;23.80;68.10;;;;;;4144357;28;20966;-59
2022/04/13 04:15:29;;;;;;;1.45;0.70;;;23.80;68.10;;;;;;4136937;28;20926;-59
2022/04/13 04:17:31;;;;;;;2.17;0.80;;;23.80;68.20;;;;;;4138088;28;20059;-58
2022/04/13 04:19:34;;;;;;;2.80;0.90;;;23.80;68.10;;;;;;4145020;28;20574;-59
2022/04/13 04:21:36;;;;;;;1.08;0.60;;;23.80;68.10;;;;;;4142119;28;20053;-58
2022/04/13 04:23:39;;;;;;;1.13;0.75;;;23.80;68.10;;;;;;4137235;28;20049;-60
2022/04/13 04:25:41;;;;;;;2.85;0.90;;;23.80;68.10;;;;;;4136441;28;20049;-60
2022/04/13 04:27:43;;;;;;;0.90;0.70;;;23.80;68.00;;;;;;4145714;28;21253;-58
2022/04/13 04:29:45;;;;;;;1.30;0.63;;;23.80;68.00;;;;;;4138907;28;20543;-59
2022/04/13 04:31:50;;;;;;;0.77;0.50;;;23.90;68.10;;;;;;4137342;28;20052;-59
2022/04/13 04:33:52;;;;;;;0.85;0.60;;;23.80;68.00;;;;;;4138476;28;20103;-59
2022/04/13 04:35:54;;;;;;;1.40;0.80;;;23.90;68.00;;;;;;4144652;28;20154;-60
2022/04/13 04:37:56;;;;;;;1.23;0.85;;;23.90;68.00;;;;;;4137307;28;20056;-59
2022/04/13 04:39:58;;;;;;;1.10;0.70;;;23.90;67.90;;;;;;4135600;28;20179;-59
2022/04/13 04:42:02;;;;;;;1.25;0.50;;;23.90;67.90;;;;;;4146455;28;20048;-59
2022/04/13 04:44:04;;;;;;;1.02;0.68;;;23.90;67.80;;;;;;4139073;28;20076;-60
2022/04/13 04:46:07;;;;;;;1.13;0.70;;;23.90;67.80;;;;;;4138660;28;20082;-59
2022/04/13 04:48:09;;;;;;;1.55;0.75;;;24.00;67.50;;;;;;4139045;28;20082;-58
2022/04/13 04:50:12;;;;;;;1.58;0.55;;;24.00;67.40;;;;;;4145160;28;20057;-52
2022/04/13 04:52:14;;;;;;;0.90;0.80;;;24.00;67.40;;;;;;4136170;28;20174;-54
2022/04/13 04:54:16;;;;;;;1.60;0.60;;;24.00;67.40;;;;;;4139718;28;20048;-56
2022/04/13 04:56:18;;;;;;;1.45;0.40;;;24.00;67.40;;;;;;4143093;28;20049;-58
2022/04/13 04:58:20;;;;;;;0.93;0.57;;;24.00;67.40;;;;;;4139277;28;20255;-55
2022/04/13 05:00:23;;;;;;;2.10;0.52;;;24.00;67.30;;;;;;4137023;28;20064;-56
2022/04/13 06:03:03;;;;;;;2.10;0.95;;;24.30;67.10;;;;;;4121403;28;20209;-52
2022/04/13 06:05:06;;;;;;;2.17;0.70;;;24.30;67.20;;;;;;4129343;28;20144;-56
2022/04/13 06:07:08;;;;;;;2.10;0.65;;;24.30;67.20;;;;;;4131121;28;20053;-55
2022/04/13 06:09:10;;;;;;;2.15;0.70;;;24.30;67.30;;;;;;4136389;28;20571;-57
2022/04/13 06:11:12;;;;;;;1.75;0.80;;;24.30;67.30;;;;;;4128455;28;20142;-56
2022/04/13 06:13:15;;;;;;;1.10;0.68;;;24.20;67.20;;;;;;4112396;28;20117;-59
2022/04/13 06:15:17;;;;;;;1.52;0.57;;;24.20;67.20;;;;;;4134303;28;20119;-57
2022/04/13 06:17:19;;;;;;;1.17;0.50;;;24.20;67.30;;;;;;4132726;28;20863;-58
2022/04/13 06:19:21;;;;;;;2.90;1.08;;;24.20;67.30;;;;;;4113045;28;20753;-51
2022/04/13 06:21:23;;;;;;;1.08;0.60;;;24.20;67.30;;;;;;4112650;28;20053;-59
2022/04/13 06:23:25;;;;;;;3.20;0.82;;;24.20;67.30;;;;;;4118685;28;20061;-55
2022/04/13 06:25:28;;;;;;;0.85;0.60;;;24.20;67.30;;;;;;4112051;28;20053;-58
2022/04/13 06:27:30;;;;;;;3.33;0.60;;;24.20;67.30;;;;;;4131713;28;20759;-57
2022/04/13 06:29:35;;;;;;;1.40;0.73;;;24.20;67.30;;;;;;4138378;28;20520;-58
2022/04/13 06:31:37;;;;;;;4.68;0.90;;;24.20;67.20;;;;;;4137752;28;20719;-57
2022/04/13 06:33:39;;;;;;;1.55;0.70;;;24.20;67.20;;;;;;4135908;28;21155;-59
2022/04/13 06:35:41;;;;;;;5.18;0.98;;;24.20;67.30;;;;;;4134201;28;20053;-60
2022/04/13 06:37:46;;;;;;;2.85;0.70;;;24.20;67.30;;;;;;4140625;28;20053;-58
2022/04/13 06:39:49;;;;;;;2.05;0.75;;;24.20;67.20;;;;;;4119786;28;20073;-56
2022/04/13 06:41:51;;;;;;;1.05;0.52;;;24.20;67.20;;;;;;4137639;28;20068;-59
2022/04/13 06:43:53;;;;;;;0.82;0.50;;;24.20;67.30;;;;;;4135769;28;20957;-60
2022/04/13 06:45:55;;;;;;;1.02;0.85;;;24.20;67.20;;;;;;4122062;28;20125;-58
2022/04/13 06:47:57;;;;;;;1.30;0.65;;;24.20;67.30;;;;;;4134645;28;20763;-58
2022/04/13 06:49:59;;;;;;;0.82;0.60;;;24.20;67.30;;;;;;4139378;28;20132;-56
2022/04/13 06:52:02;;;;;;;2.90;0.83;;;24.20;67.30;;;;;;4144151;28;20782;-59
2022/04/13 06:54:04;;;;;;;1.53;0.60;;;24.20;67.30;;;;;;4122746;28;20058;-55
2022/04/13 06:56:06;;;;;;;0.70;0.60;;;24.20;67.30;;;;;;4138372;28;20389;-54
2022/04/13 06:58:08;;;;;;;1.88;0.68;;;24.10;67.30;;;;;;4140085;28;20080;-60
2022/04/13 07:00:15;;;;;;;2.67;0.70;;;24.10;67.30;;;;;;4113519;28;20615;-58
2022/04/13 07:02:18;;;;;;;0.98;0.65;;;24.10;67.40;;;;;;4131077;28;20045;-58
2022/04/13 07:04:20;;;;;;;2.33;0.93;;;24.10;67.40;;;;;;4130588;28;20501;-57
2022/04/13 07:06:22;;;;;;;1.95;0.60;;;24.10;67.50;;;;;;4145744;28;20069;-57
2022/04/13 07:08:24;;;;;;;0.93;0.50;;;24.10;67.50;;;;;;4121340;28;20536;-57
2022/04/13 07:10:27;;;;;;;1.27;0.43;;;24.10;67.40;;;;;;4141242;28;20049;-57
2022/04/13 07:12:38;;;;;;;2.08;0.80;;;24.10;67.40;;;;;;4120787;28;20041;-53
2022/04/13 07:14:41;;;;;;;11.32;1.52;;;24.10;67.20;;;;;;4113238;28;20058;-59
2022/04/13 07:16:43;;;;;;;;;;;24.10;66.60;;;;;;4134472;28;20045;-56
2022/04/13 07:18:45;;;;;;;1.85;0.60;;;24.00;66.60;;;;;;4136088;28;19947;-50
2022/04/13 07:20:47;;;;;;;1.05;0.80;;;24.10;66.50;;;;;;4136696;28;20053;-57
2022/04/13 07:22:52;;;;;;;2.80;0.90;;;24.00;66.40;;;;;;4115223;28;20141;-52
2022/04/13 07:24:55;;;;;;;1.63;0.68;;;24.00;66.30;;;;;;4130765;28;20069;-56
2022/04/13 07:26:57;;;;;;;1.85;0.90;;;23.90;66.40;;;;;;4112452;28;20057;-54
2022/04/13 07:29:00;;;;;;;1.75;0.85;;;23.90;66.40;;;;;;4108322;28;20057;-56
2022/04/13 07:31:02;;;;;;;3.70;0.82;;;23.80;66.50;;;;;;4109918;28;20158;-57
2022/04/13 07:33:04;;;;;;;1.58;0.73;;;23.80;66.60;;;;;;4098033;28;20137;-54
2022/04/13 07:35:07;;;;;;;1.70;1.08;;;23.80;67.10;;;;;;4124903;28;20053;-55
2022/04/13 07:37:09;;;;;;;1.55;0.75;;;23.80;66.70;;;;;;4127396;28;20061;-56
2022/04/13 07:39:11;;;;;;;1.55;0.88;;;23.70;66.80;;;;;;4133363;28;20053;-55
2022/04/13 07:41:14;;;;;;;0.57;0.57;;;23.70;66.90;;;;;;4111974;28;20164;-56
2022/04/13 07:43:16;;;;;;;0.90;0.50;;;23.70;67.00;;;;;;4114258;28;20057;-55
2022/04/13 07:45:19;;;;;;;0.77;0.60;;;23.60;67.70;;;;;;4114466;28;20053;-57
2022/04/13 07:47:22;;;;;;;1.33;0.77;;;23.60;67.10;;;;;;4118759;28;20062;-57
2022/04/13 07:49:25;;;;;;;1.75;0.70;;;23.60;67.20;;;;;;4098582;28;21202;-57
2022/04/13 07:51:27;;;;;;;1.35;0.70;;;23.50;67.30;;;;;;4131370;28;20427;-55
2022/04/13 07:53:29;;;;;;;2.83;0.95;;;23.50;67.30;;;;;;4133583;28;20053;-57
2022/04/13 07:55:32;;;;;;;0.70;0.60;;;23.50;67.40;;;;;;4114588;28;20132;-55
2022/04/13 07:57:34;;;;;;;0.73;0.60;;;23.50;67.50;;;;;;4128881;28;20053;-56
2022/04/13 07:59:36;;;;;;;1.00;0.70;;;23.50;67.60;;;;;;4129576;28;20049;-57
2022/04/13 08:01:38;;;;;;;0.98;0.70;;;23.40;67.50;;;;;;4134971;28;20355;-53
2022/04/13 08:03:40;;;;;;;1.30;0.80;;;23.40;67.60;;;;;;4109548;28;21909;-56
2022/04/13 08:05:42;;;;;;;1.38;0.80;;;23.30;67.60;;;;;;4111262;28;20052;-56
2022/04/13 08:07:45;;;;;;;1.35;0.90;;;23.30;67.70;;;;;;4116799;28;20076;-58
2022/04/13 08:09:47;;;;;;;0.65;0.57;;;23.30;67.70;;;;;;4134664;28;20151;-57
2022/04/13 08:11:52;;;;;;;0.57;0.50;;;23.30;67.70;;;;;;4131821;28;20921;-56
2022/04/13 08:13:54;;;;;;;0.70;0.50;;;23.30;67.90;;;;;;4115792;28;20367;-59
2022/04/13 08:15:57;;;;;;;1.45;0.73;;;23.20;67.90;;;;;;4120192;28;20497;-57
2022/04/13 08:17:59;;;;;;;0.73;0.60;;;23.20;67.90;;;;;;4133760;28;20060;-53
2022/04/13 08:20:02;;;;;;;0.98;0.70;;;23.20;68.00;;;;;;4097499;28;20200;-55
2022/04/13 08:22:04;;;;;;;0.73;0.63;;;23.20;68.00;;;;;;4132788;28;20089;-58
2022/04/13 08:24:07;;;;;;;0.50;0.50;;;23.20;68.10;;;;;;4137082;28;20062;-56
2022/04/13 08:26:10;;;;;;;0.70;0.68;;;23.10;68.20;;;;;;4130542;28;20044;-58
2022/04/13 08:28:12;;;;;;;0.80;0.67;;;23.10;68.20;;;;;;4130328;28;20107;-55
2022/04/13 08:30:15;;;;;;;1.02;0.65;;;23.10;68.20;;;;;;4101588;28;20060;-58
2022/04/13 08:32:18;;;;;;;0.55;0.55;;;23.10;68.30;;;;;;4101080;28;20058;-56
2022/04/13 08:34:20;;;;;;;1.85;1.08;;;23.00;68.30;;;;;;4133079;28;20047;-52
2022/04/13 08:36:22;;;;;;;1.15;0.80;;;23.00;68.30;;;;;;4130296;28;20057;-58
2022/04/13 08:38:25;;;;;;;1.17;0.60;;;23.00;68.40;;;;;;4136063;28;20107;-55
2022/04/13 08:40:27;;;;;;;0.40;0.40;;;23.00;68.40;;;;;;4113214;28;20168;-58
2022/04/13 08:42:50;;;;;;;0.80;0.60;;;23.00;68.50;;;;;;4111310;28;20053;-57
2022/04/13 08:44:54;;;;;;;1.30;0.75;;;23.00;68.50;;;;;;4114712;28;20064;-56
2022/04/13 08:47:01;;;;;;;0.60;0.60;;;23.00;68.60;;;;;;4129211;28;20424;-54
2022/04/13 08:49:08;;;;;;;0.75;0.75;;;22.90;68.60;;;;;;4127217;28;20495;-57
2022/04/13 08:51:15;;;;;;;0.98;0.60;;;22.90;68.60;;;;;;4129709;28;20049;-55
2022/04/13 08:53:24;;;;;;;0.60;0.60;;;22.90;68.70;;;;;;4112850;28;20049;-57
2022/04/13 08:55:28;;;;;;;0.47;0.47;;;22.90;68.70;;;;;;4134732;28;20569;-58
2022/04/13 08:57:44;;;;;;;1.05;0.70;;;22.90;68.80;;;;;;4133512;28;20066;-56
2022/04/13 09:00:13;;;;;;;1.38;0.70;;;22.80;68.80;;;;;;4136304;28;20057;-54
2022/04/13 09:02:44;;;;;;;0.60;0.52;;;22.80;68.90;;;;;;4130627;28;20401;-56
2022/04/13 09:04:47;;;;;;;0.57;0.50;;;22.80;68.90;;;;;;4099420;28;20124;-58
2022/04/13 09:06:50;;;;;;;2.83;0.68;;;22.80;68.90;;;;;;4132116;28;20049;-55
2022/04/13 09:09:01;;;;;;;0.50;0.47;;;22.80;68.90;;;;;;4111040;28;20078;-56
2022/04/13 09:11:04;;;;;;;0.57;0.57;;;22.70;68.90;;;;;;4113554;28;21240;-55
2022/04/13 09:13:10;;;;;;;;;;;22.70;69.00;;;;;;4130025;28;20065;-52
2022/04/13 09:15:14;;;;;;;0.60;0.60;;;22.70;69.00;;;;;;4116892;28;19959;-57
2022/04/13 09:17:16;;;;;;;0.70;0.50;;;22.70;69.00;;;;;;4116231;28;21776;-52
2022/04/13 09:19:19;;;;;;;1.25;0.68;;;22.70;69.10;;;;;;4112609;28;20085;-56
2022/04/13 09:21:22;;;;;;;0.65;0.55;;;22.60;69.10;;;;;;4129360;28;20055;-53
2022/04/13 09:23:25;;;;;;;0.65;0.52;;;22.60;69.10;;;;;;4136652;28;20064;-54
2022/04/13 09:25:30;;;;;;;0.52;0.52;;;22.60;69.10;;;;;;4133296;28;20061;-57
2022/04/13 09:27:33;;;;;;;0.70;0.63;;;22.60;69.20;;;;;;4130887;28;20729;-56
2022/04/13 09:29:37;;;;;;;0.65;0.60;;;22.60;69.30;;;;;;4114016;28;20060;-52
2022/04/13 09:31:39;;;;;;;0.63;0.60;;;22.60;69.30;;;;;;4137032;28;20405;-57
2022/04/13 09:33:43;;;;;;;0.70;0.52;;;22.60;69.30;;;;;;4120129;28;21699;-52
2022/04/13 09:35:46;;;;;;;0.75;0.60;;;22.50;69.90;;;;;;4134187;28;20045;-57
2022/04/13 09:37:48;;;;;;;0.68;0.68;;;22.50;69.30;;;;;;4113796;28;20050;-58
2022/04/13 09:39:51;;;;;;;1.27;0.70;;;22.50;69.40;;;;;;4122053;28;20050;-54
2022/04/13 09:41:54;;;;;;;1.38;0.80;;;22.50;69.50;;;;;;4135687;28;20060;-56
2022/04/13 09:43:56;;;;;;;0.50;0.50;;;22.50;69.40;;;;;;4115451;28;20164;-52
2022/04/13 09:45:59;;;;;;;0.50;0.50;;;22.50;69.40;;;;;;4135141;28;20052;-57
2022/04/13 09:48:05;;;;;;;1.40;0.50;;;22.50;69.40;;;;;;4139387;28;20057;-52
2022/04/13 09:50:08;;;;;;;0.98;0.77;;;22.40;69.50;;;;;;4134212;28;20058;-58
2022/04/13 09:52:10;;;;;;;0.60;0.60;;;22.40;69.50;;;;;;4132745;28;20100;-52
2022/04/13 09:54:14;;;;;;;0.88;0.50;;;22.40;69.50;;;;;;4115781;28;20353;-57
2022/04/13 09:56:24;;;;;;;0.73;0.52;;;22.40;69.60;;;;;;4139647;28;20045;-57
2022/04/13 09:58:32;;;;;;;0.85;0.50;;;22.40;69.60;;;;;;4138122;28;20061;-53
2022/04/13 10:00:36;;;;;;;0.50;0.50;;;22.40;69.60;;;;;;4136166;28;20048;-54
2022/04/13 10:02:40;;;;;;;0.47;0.47;;;22.40;69.60;;;;;;4130418;28;20583;-57
2022/04/13 10:04:42;;;;;;;1.58;0.70;;;22.30;69.60;;;;;;4132197;28;20190;-53
2022/04/13 10:06:44;;;;;;;1.15;0.70;;;22.30;69.60;;;;;;4122155;28;20065;-52
2022/04/13 10:09:00;;;;;;;1.48;0.80;;;22.30;69.70;;;;;;4137202;28;20057;-54
2022/04/13 10:11:07;;;;;;;0.77;0.70;;;22.30;70.30;;;;;;4120434;28;20054;-52
2022/04/13 10:13:10;;;;;;;0.85;0.70;;;22.30;69.70;;;;;;4133761;28;20060;-55
2022/04/13 10:15:13;;;;;;;0.60;0.50;;;22.30;69.70;;;;;;4132577;28;20053;-53
2022/04/13 10:17:20;;;;;;;1.03;0.70;;;22.30;69.70;;;;;;4116740;28;20116;-56
2022/04/13 10:19:23;;;;;;;1.17;0.52;;;22.20;69.70;;;;;;4138578;28;20160;-57
2022/04/13 10:21:46;;;;;;;0.93;0.75;;;22.20;70.40;;;;;;4136214;28;21049;-55
2022/04/13 10:23:48;;;;;;;0.70;0.70;;;22.20;69.80;;;;;;4135079;28;20119;-59
2022/04/13 10:26:09;;;;;;;1.77;0.80;;;22.20;69.80;;;;;;4137702;28;21174;-57
2022/04/13 10:28:15;;;;;;;0.57;0.55;;;22.20;69.90;;;;;;4119137;28;20651;-57
2022/04/13 10:30:32;;;;;;;1.00;0.70;;;22.20;69.90;;;;;;4124561;28;20049;-52
2022/04/13 10:32:35;;;;;;;0.65;0.57;;;22.20;69.90;;;;;;4118021;28;20245;-55
2022/04/13 10:34:42;;;;;;;1.45;0.80;;;22.20;69.90;;;;;;4120693;28;20062;-55
2022/04/13 10:36:44;;;;;;;0.90;0.60;;;22.10;69.90;;;;;;4136816;28;21537;-57
2022/04/13 10:38:47;;;;;;;0.70;0.68;;;22.10;69.90;;;;;;4130299;28;20057;-55
2022/04/13 10:40:51;;;;;;;0.65;0.60;;;22.10;69.90;;;;;;4116398;28;20081;-57
2022/04/13 10:42:55;;;;;;;1.15;0.70;;;22.10;69.90;;;;;;4138416;28;20076;-51
2022/04/13 10:45:04;;;;;;;1.00;0.70;;;22.10;69.90;;;;;;4116980;28;21621;-55
2022/04/13 10:47:08;;;;;;;0.93;0.73;;;22.10;70.00;;;;;;4130918;28;20057;-54
2022/04/13 10:49:12;;;;;;;0.88;0.70;;;22.10;69.90;;;;;;4133122;28;20059;-54
2022/04/13 10:51:28;;;;;;;0.90;0.70;;;22.00;69.90;;;;;;4134131;28;20049;-56
2022/04/13 10:54:09;;;;;;;0.68;0.60;;;22.00;69.90;;;;;;4098919;28;20116;-53
2022/04/13 10:56:12;;;;;;;1.45;0.90;;;22.00;70.00;;;;;;4135375;28;20054;-58
2022/04/13 10:58:34;;;;;;;;;;;22.00;70.10;;;;;;4122403;28;20140;-55
2022/04/13 11:00:40;;;;;;;0.75;0.60;;;22.00;70.10;;;;;;4122737;28;19932;-53
2022/04/13 11:02:42;;;;;;;1.15;0.70;;;22.00;70.10;;;;;;4141892;28;20441;-57
2022/04/13 11:04:46;;;;;;;0.75;0.60;;;22.00;70.20;;;;;;4139587;28;20084;-49
2022/04/13 11:06:49;;;;;;;0.70;0.70;;;22.00;70.20;;;;;;4137174;28;20084;-53
2022/04/13 11:08:58;;;;;;;0.65;0.63;;;22.00;70.20;;;;;;4136615;28;20076;-56
2022/04/13 11:11:01;;;;;;;0.73;0.60;;;21.90;70.10;;;;;;4117994;28;20126;-58
2022/04/13 11:13:04;;;;;;;0.65;0.65;;;22.00;70.30;;;;;;4127834;28;20150;-57
2022/04/13 11:15:06;;;;;;;0.83;0.70;;;21.90;70.20;;;;;;4139292;28;21137;-55
2022/04/13 11:17:08;;;;;;;1.00;0.80;;;21.90;70.20;;;;;;4121684;28;20218;-56
2022/04/13 11:19:10;;;;;;;0.65;0.65;;;21.90;70.30;;;;;;4140425;28;20056;-56
2022/04/13 11:21:13;;;;;;;0.77;0.70;;;21.90;70.30;;;;;;4125534;28;20073;-57
2022/04/13 11:23:16;;;;;;;0.50;0.50;;;21.90;70.40;;;;;;4138048;28;20115;-58
2022/04/13 11:25:36;;;;;;;;;;;21.90;70.40;;;;;;4144811;28;20091;-55
2022/04/13 11:27:54;;;;;;;1.63;0.88;;;21.80;70.30;;;;;;4146881;28;19929;-58
2022/04/13 11:30:01;;;;;;;0.70;0.52;;;21.90;70.40;;;;;;4145965;28;20376;-57
2022/04/13 11:32:06;;;;;;;1.42;0.50;;;21.90;71.10;;;;;;4147842;28;20056;-56
2022/04/13 11:34:09;;;;;;;1.02;0.80;;;21.90;70.40;;;;;;4149551;28;20156;-58
2022/04/13 11:36:12;;;;;;;2.17;0.50;;;21.80;70.40;;;;;;4139359;28;20152;-53
2022/04/13 11:38:15;;;;;;;;;;;21.80;70.50;;;;;;4145660;28;20045;-57
2022/04/13 11:40:23;;;;;;;0.90;0.73;;;21.80;70.50;;;;;;4141531;28;19929;-57
2022/04/13 11:42:31;;;;;;;1.10;0.60;;;21.80;70.50;;;;;;4136007;28;20140;-51
2022/04/13 11:44:51;;;;;;;0.95;0.70;;;21.80;70.50;;;;;;4123438;28;20443;-53
2022/04/13 11:47:14;;;;;;;1.17;0.60;;;21.80;70.50;;;;;;4140591;28;20060;-52